sensor_id;sensor_type;location;lat;lon;timestamp;P1;durP1;ratioP1;P2;durP2;ratioP2
4053;SDS011;2042;47.956;9.222;2023-09-30T00:01:44;15.00;;;6.60;;
4053;SDS011;2042;47.956;9.222;2023-09-30T00:04:10;15.17;;;6.17;;
4053;SDS011;2042;47.956;9.222;2023-09-30T00:06:36;15.90;;;6.37;;
4053;SDS011;2042;47.956;9.222;2023-09-30T00:09:02;12.10;;;5.27;;
4053;SDS011;2042;47.956;9.222;2023-09-30T00:11:28;15.27;;;6.77;;
4053;SDS011;2042;47.956;9.222;2023-09-30T00:13:53;17.67;;;7.33;;
4053;SDS011;2042;47.956;9.222;2023-09-30T00:16:19;15.20;;;9.20;;
4053;SDS011;2042;47.956;9.222;2023-09-30T00:18:45;9.97;;;5.17;;
4053;SDS011;2042;47.956;9.222;2023-09-30T00:21:11;13.43;;;6.47;;
4053;SDS011;2042;47.956;9.222;2023-09-30T00:23:37;13.90;;;6.83;;
4053;SDS011;2042;47.956;9.222;2023-09-30T00:26:03;12.77;;;6.00;;
4053;SDS011;2042;47.956;9.222;2023-09-30T00:28:30;12.80;;;5.73;;
4053;SDS011;2042;47.956;9.222;2023-09-30T00:30:56;13.67;;;6.67;;
4053;SDS011;2042;47.956;9.222;2023-09-30T00:33:21;13.83;;;5.57;;
4053;SDS011;2042;47.956;9.222;2023-09-30T00:35:48;16.50;;;6.50;;
4053;SDS011;2042;47.956;9.222;2023-09-30T00:38:13;11.53;;;5.17;;
4053;SDS011;2042;47.956;9.222;2023-09-30T00:40:45;14.80;;;7.67;;
4053;SDS011;2042;47.956;9.222;2023-09-30T00:43:18;13.63;;;8.10;;
4053;SDS011;2042;47.956;9.222;2023-09-30T00:45:44;10.30;;;5.30;;
4053;SDS011;2042;47.956;9.222;2023-09-30T00:48:10;14.90;;;5.80;;
4053;SDS011;2042;47.956;9.222;2023-09-30T00:50:36;10.90;;;5.60;;
4053;SDS011;2042;47.956;9.222;2023-09-30T00:53:02;9.20;;;5.30;;
4053;SDS011;2042;47.956;9.222;2023-09-30T00:55:28;9.80;;;5.90;;
4053;SDS011;2042;47.956;9.222;2023-09-30T00:57:54;11.67;;;4.90;;
4053;SDS011;2042;47.956;9.222;2023-09-30T01:00:20;9.93;;;5.07;;
4053;SDS011;2042;47.956;9.222;2023-09-30T01:02:46;12.90;;;5.97;;
4053;SDS011;2042;47.956;9.222;2023-09-30T01:05:12;12.47;;;7.00;;
4053;SDS011;2042;47.956;9.222;2023-09-30T01:07:38;15.40;;;6.30;;
4053;SDS011;2042;47.956;9.222;2023-09-30T01:10:04;15.80;;;6.07;;
4053;SDS011;2042;47.956;9.222;2023-09-30T01:12:30;17.03;;;6.17;;
4053;SDS011;2042;47.956;9.222;2023-09-30T01:14:57;12.20;;;6.10;;
4053;SDS011;2042;47.956;9.222;2023-09-30T01:17:24;11.30;;;5.80;;
4053;SDS011;2042;47.956;9.222;2023-09-30T01:19:51;12.87;;;6.57;;
4053;SDS011;2042;47.956;9.222;2023-09-30T01:22:17;10.03;;;5.40;;
4053;SDS011;2042;47.956;9.222;2023-09-30T01:24:43;17.73;;;7.17;;
4053;SDS011;2042;47.956;9.222;2023-09-30T01:27:12;13.20;;;6.20;;
4053;SDS011;2042;47.956;9.222;2023-09-30T01:29:38;11.37;;;5.50;;
4053;SDS011;2042;47.956;9.222;2023-09-30T01:32:04;10.50;;;5.87;;
4053;SDS011;2042;47.956;9.222;2023-09-30T01:34:34;10.97;;;4.80;;
4053;SDS011;2042;47.956;9.222;2023-09-30T01:37:00;9.40;;;4.93;;
4053;SDS011;2042;47.956;9.222;2023-09-30T01:39:26;9.87;;;5.27;;
4053;SDS011;2042;47.956;9.222;2023-09-30T01:41:52;12.77;;;5.47;;
4053;SDS011;2042;47.956;9.222;2023-09-30T01:44:19;10.83;;;4.83;;
4053;SDS011;2042;47.956;9.222;2023-09-30T01:46:44;11.27;;;5.40;;
4053;SDS011;2042;47.956;9.222;2023-09-30T01:49:10;11.73;;;4.80;;
4053;SDS011;2042;47.956;9.222;2023-09-30T01:51:35;15.37;;;6.40;;
4053;SDS011;2042;47.956;9.222;2023-09-30T01:54:01;11.50;;;6.30;;
4053;SDS011;2042;47.956;9.222;2023-09-30T01:56:27;15.77;;;5.77;;
4053;SDS011;2042;47.956;9.222;2023-09-30T01:58:53;14.83;;;6.17;;
4053;SDS011;2042;47.956;9.222;2023-09-30T02:01:18;13.13;;;5.63;;
4053;SDS011;2042;47.956;9.222;2023-09-30T02:03:45;13.60;;;5.40;;
4053;SDS011;2042;47.956;9.222;2023-09-30T02:06:11;9.30;;;5.37;;
4053;SDS011;2042;47.956;9.222;2023-09-30T02:08:36;7.47;;;4.30;;
4053;SDS011;2042;47.956;9.222;2023-09-30T02:11:02;8.73;;;3.87;;
4053;SDS011;2042;47.956;9.222;2023-09-30T02:13:31;14.13;;;5.90;;
4053;SDS011;2042;47.956;9.222;2023-09-30T02:15:58;7.90;;;5.60;;
4053;SDS011;2042;47.956;9.222;2023-09-30T02:18:24;11.43;;;4.80;;
4053;SDS011;2042;47.956;9.222;2023-09-30T02:20:49;11.53;;;5.07;;
4053;SDS011;2042;47.956;9.222;2023-09-30T02:23:16;10.43;;;4.30;;
4053;SDS011;2042;47.956;9.222;2023-09-30T02:25:42;14.30;;;5.60;;
4053;SDS011;2042;47.956;9.222;2023-09-30T02:28:08;10.50;;;4.90;;
4053;SDS011;2042;47.956;9.222;2023-09-30T02:30:34;12.17;;;6.10;;
4053;SDS011;2042;47.956;9.222;2023-09-30T02:33:01;15.93;;;6.13;;
4053;SDS011;2042;47.956;9.222;2023-09-30T02:35:27;10.70;;;4.67;;
4053;SDS011;2042;47.956;9.222;2023-09-30T02:37:53;11.33;;;5.57;;
4053;SDS011;2042;47.956;9.222;2023-09-30T02:40:19;8.27;;;4.00;;
4053;SDS011;2042;47.956;9.222;2023-09-30T02:42:45;9.47;;;5.93;;
4053;SDS011;2042;47.956;9.222;2023-09-30T02:45:12;10.60;;;4.50;;
4053;SDS011;2042;47.956;9.222;2023-09-30T02:47:39;14.30;;;5.10;;
4053;SDS011;2042;47.956;9.222;2023-09-30T02:50:06;8.80;;;4.33;;
4053;SDS011;2042;47.956;9.222;2023-09-30T02:52:50;9.17;;;5.23;;
4053;SDS011;2042;47.956;9.222;2023-09-30T02:55:16;12.70;;;6.33;;
4053;SDS011;2042;47.956;9.222;2023-09-30T02:57:42;8.83;;;4.60;;
4053;SDS011;2042;47.956;9.222;2023-09-30T03:00:09;12.00;;;5.57;;
4053;SDS011;2042;47.956;9.222;2023-09-30T03:02:54;12.20;;;4.90;;
4053;SDS011;2042;47.956;9.222;2023-09-30T03:05:21;11.20;;;4.40;;
4053;SDS011;2042;47.956;9.222;2023-09-30T03:07:47;10.53;;;6.93;;
4053;SDS011;2042;47.956;9.222;2023-09-30T03:10:15;10.07;;;4.73;;
4053;SDS011;2042;47.956;9.222;2023-09-30T03:12:46;10.97;;;5.57;;
4053;SDS011;2042;47.956;9.222;2023-09-30T03:15:12;9.33;;;5.67;;
4053;SDS011;2042;47.956;9.222;2023-09-30T03:17:39;9.07;;;5.17;;
4053;SDS011;2042;47.956;9.222;2023-09-30T03:20:05;8.90;;;4.83;;
4053;SDS011;2042;47.956;9.222;2023-09-30T03:22:35;8.37;;;4.00;;
4053;SDS011;2042;47.956;9.222;2023-09-30T03:25:02;9.33;;;4.80;;
4053;SDS011;2042;47.956;9.222;2023-09-30T03:27:28;10.23;;;4.90;;
4053;SDS011;2042;47.956;9.222;2023-09-30T03:29:54;8.90;;;4.33;;
4053;SDS011;2042;47.956;9.222;2023-09-30T03:32:20;10.63;;;6.53;;
4053;SDS011;2042;47.956;9.222;2023-09-30T03:34:46;8.67;;;4.80;;
4053;SDS011;2042;47.956;9.222;2023-09-30T03:37:12;14.87;;;4.40;;
4053;SDS011;2042;47.956;9.222;2023-09-30T03:39:37;14.80;;;5.10;;
4053;SDS011;2042;47.956;9.222;2023-09-30T03:42:03;8.50;;;4.33;;
4053;SDS011;2042;47.956;9.222;2023-09-30T03:44:29;8.80;;;4.53;;
4053;SDS011;2042;47.956;9.222;2023-09-30T03:46:54;11.20;;;5.13;;
4053;SDS011;2042;47.956;9.222;2023-09-30T03:49:20;15.93;;;3.80;;
4053;SDS011;2042;47.956;9.222;2023-09-30T03:51:46;7.93;;;3.93;;
4053;SDS011;2042;47.956;9.222;2023-09-30T03:54:12;10.40;;;5.27;;
4053;SDS011;2042;47.956;9.222;2023-09-30T03:56:37;13.17;;;4.60;;
4053;SDS011;2042;47.956;9.222;2023-09-30T03:59:06;10.53;;;4.67;;
4053;SDS011;2042;47.956;9.222;2023-09-30T04:01:33;10.00;;;4.97;;
4053;SDS011;2042;47.956;9.222;2023-09-30T04:03:59;9.70;;;5.37;;
4053;SDS011;2042;47.956;9.222;2023-09-30T04:06:25;12.00;;;5.60;;
4053;SDS011;2042;47.956;9.222;2023-09-30T04:08:51;9.30;;;4.30;;
4053;SDS011;2042;47.956;9.222;2023-09-30T04:11:17;9.87;;;4.83;;
4053;SDS011;2042;47.956;9.222;2023-09-30T04:13:44;9.43;;;3.60;;
4053;SDS011;2042;47.956;9.222;2023-09-30T04:16:10;7.63;;;3.60;;
4053;SDS011;2042;47.956;9.222;2023-09-30T04:18:36;5.20;;;3.70;;
4053;SDS011;2042;47.956;9.222;2023-09-30T04:21:03;13.13;;;5.20;;
4053;SDS011;2042;47.956;9.222;2023-09-30T04:23:32;7.50;;;4.00;;
4053;SDS011;2042;47.956;9.222;2023-09-30T04:25:58;4.87;;;3.70;;
4053;SDS011;2042;47.956;9.222;2023-09-30T04:28:24;9.97;;;4.60;;
4053;SDS011;2042;47.956;9.222;2023-09-30T04:30:50;10.80;;;4.50;;
4053;SDS011;2042;47.956;9.222;2023-09-30T04:33:16;9.10;;;4.37;;
4053;SDS011;2042;47.956;9.222;2023-09-30T04:35:43;5.60;;;3.67;;
4053;SDS011;2042;47.956;9.222;2023-09-30T04:38:10;6.47;;;4.10;;
4053;SDS011;2042;47.956;9.222;2023-09-30T04:40:35;7.33;;;3.63;;
4053;SDS011;2042;47.956;9.222;2023-09-30T04:43:02;9.40;;;4.70;;
4053;SDS011;2042;47.956;9.222;2023-09-30T04:45:28;10.33;;;5.37;;
4053;SDS011;2042;47.956;9.222;2023-09-30T04:47:54;16.20;;;5.70;;
4053;SDS011;2042;47.956;9.222;2023-09-30T04:50:22;11.37;;;4.60;;
4053;SDS011;2042;47.956;9.222;2023-09-30T04:52:49;16.50;;;6.67;;
4053;SDS011;2042;47.956;9.222;2023-09-30T04:55:16;12.80;;;4.03;;
4053;SDS011;2042;47.956;9.222;2023-09-30T04:57:43;13.70;;;4.40;;
4053;SDS011;2042;47.956;9.222;2023-09-30T05:00:11;12.73;;;4.60;;
4053;SDS011;2042;47.956;9.222;2023-09-30T05:02:38;13.13;;;4.53;;
4053;SDS011;2042;47.956;9.222;2023-09-30T05:05:04;27.53;;;7.63;;
4053;SDS011;2042;47.956;9.222;2023-09-30T05:07:31;32.27;;;7.50;;
4053;SDS011;2042;47.956;9.222;2023-09-30T05:09:57;19.80;;;7.20;;
4053;SDS011;2042;47.956;9.222;2023-09-30T05:12:23;20.63;;;6.93;;
4053;SDS011;2042;47.956;9.222;2023-09-30T05:14:48;29.80;;;7.40;;
4053;SDS011;2042;47.956;9.222;2023-09-30T05:17:14;28.57;;;8.53;;
4053;SDS011;2042;47.956;9.222;2023-09-30T05:19:40;23.47;;;6.67;;
4053;SDS011;2042;47.956;9.222;2023-09-30T05:22:06;23.83;;;7.83;;
4053;SDS011;2042;47.956;9.222;2023-09-30T05:24:32;20.30;;;6.70;;
4053;SDS011;2042;47.956;9.222;2023-09-30T05:26:58;16.67;;;5.87;;
4053;SDS011;2042;47.956;9.222;2023-09-30T05:29:23;14.90;;;6.70;;
4053;SDS011;2042;47.956;9.222;2023-09-30T05:31:49;12.77;;;5.10;;
4053;SDS011;2042;47.956;9.222;2023-09-30T05:34:14;19.30;;;5.70;;
4053;SDS011;2042;47.956;9.222;2023-09-30T05:36:41;17.30;;;6.47;;
4053;SDS011;2042;47.956;9.222;2023-09-30T05:39:07;16.37;;;4.83;;
4053;SDS011;2042;47.956;9.222;2023-09-30T05:41:35;14.90;;;5.40;;
4053;SDS011;2042;47.956;9.222;2023-09-30T05:44:02;18.33;;;7.37;;
4053;SDS011;2042;47.956;9.222;2023-09-30T05:46:29;28.13;;;8.80;;
4053;SDS011;2042;47.956;9.222;2023-09-30T05:48:56;17.30;;;8.00;;
4053;SDS011;2042;47.956;9.222;2023-09-30T05:51:21;15.70;;;6.30;;
4053;SDS011;2042;47.956;9.222;2023-09-30T05:53:47;16.13;;;4.97;;
4053;SDS011;2042;47.956;9.222;2023-09-30T05:56:13;9.10;;;5.17;;
4053;SDS011;2042;47.956;9.222;2023-09-30T05:58:40;13.90;;;5.57;;
4053;SDS011;2042;47.956;9.222;2023-09-30T06:01:10;12.93;;;5.13;;
4053;SDS011;2042;47.956;9.222;2023-09-30T06:03:36;13.73;;;6.00;;
4053;SDS011;2042;47.956;9.222;2023-09-30T06:06:10;15.10;;;6.27;;
4053;SDS011;2042;47.956;9.222;2023-09-30T06:08:40;13.60;;;5.67;;
4053;SDS011;2042;47.956;9.222;2023-09-30T06:11:08;13.73;;;5.53;;
4053;SDS011;2042;47.956;9.222;2023-09-30T06:13:45;10.27;;;5.60;;
4053;SDS011;2042;47.956;9.222;2023-09-30T06:16:14;17.10;;;5.53;;
4053;SDS011;2042;47.956;9.222;2023-09-30T06:18:41;19.13;;;5.73;;
4053;SDS011;2042;47.956;9.222;2023-09-30T06:21:06;10.80;;;5.97;;
4053;SDS011;2042;47.956;9.222;2023-09-30T06:23:35;12.00;;;5.70;;
4053;SDS011;2042;47.956;9.222;2023-09-30T06:26:00;14.50;;;5.40;;
4053;SDS011;2042;47.956;9.222;2023-09-30T06:28:28;25.63;;;6.23;;
4053;SDS011;2042;47.956;9.222;2023-09-30T06:30:56;14.43;;;5.90;;
4053;SDS011;2042;47.956;9.222;2023-09-30T06:33:22;11.90;;;5.30;;
4053;SDS011;2042;47.956;9.222;2023-09-30T06:35:48;12.40;;;5.93;;
4053;SDS011;2042;47.956;9.222;2023-09-30T06:38:20;13.53;;;6.87;;
4053;SDS011;2042;47.956;9.222;2023-09-30T06:40:46;12.80;;;5.90;;
4053;SDS011;2042;47.956;9.222;2023-09-30T06:43:16;19.87;;;5.97;;
4053;SDS011;2042;47.956;9.222;2023-09-30T06:45:42;16.13;;;6.17;;
4053;SDS011;2042;47.956;9.222;2023-09-30T06:48:08;14.90;;;5.73;;
4053;SDS011;2042;47.956;9.222;2023-09-30T06:50:49;17.13;;;4.67;;
4053;SDS011;2042;47.956;9.222;2023-09-30T06:53:15;13.80;;;5.13;;
4053;SDS011;2042;47.956;9.222;2023-09-30T06:55:44;12.93;;;5.20;;
4053;SDS011;2042;47.956;9.222;2023-09-30T06:58:10;9.30;;;5.50;;
4053;SDS011;2042;47.956;9.222;2023-09-30T07:00:37;11.50;;;5.13;;
4053;SDS011;2042;47.956;9.222;2023-09-30T07:03:03;11.27;;;5.07;;
4053;SDS011;2042;47.956;9.222;2023-09-30T07:05:29;10.50;;;5.90;;
4053;SDS011;2042;47.956;9.222;2023-09-30T07:07:54;8.60;;;5.10;;
4053;SDS011;2042;47.956;9.222;2023-09-30T07:10:20;13.23;;;4.80;;
4053;SDS011;2042;47.956;9.222;2023-09-30T07:12:46;9.60;;;5.13;;
4053;SDS011;2042;47.956;9.222;2023-09-30T07:15:11;9.70;;;5.60;;
4053;SDS011;2042;47.956;9.222;2023-09-30T07:17:39;12.03;;;6.00;;
4053;SDS011;2042;47.956;9.222;2023-09-30T07:20:05;12.67;;;5.27;;
4053;SDS011;2042;47.956;9.222;2023-09-30T07:22:35;10.53;;;4.70;;
4053;SDS011;2042;47.956;9.222;2023-09-30T07:25:01;9.23;;;5.07;;
4053;SDS011;2042;47.956;9.222;2023-09-30T07:27:27;11.10;;;5.97;;
4053;SDS011;2042;47.956;9.222;2023-09-30T07:29:53;9.90;;;4.80;;
4053;SDS011;2042;47.956;9.222;2023-09-30T07:32:19;8.83;;;4.73;;
4053;SDS011;2042;47.956;9.222;2023-09-30T07:34:47;12.40;;;5.57;;
4053;SDS011;2042;47.956;9.222;2023-09-30T07:37:13;11.47;;;5.77;;
4053;SDS011;2042;47.956;9.222;2023-09-30T07:39:39;10.73;;;4.60;;
4053;SDS011;2042;47.956;9.222;2023-09-30T07:42:05;10.33;;;4.90;;
4053;SDS011;2042;47.956;9.222;2023-09-30T07:44:33;10.77;;;4.73;;
4053;SDS011;2042;47.956;9.222;2023-09-30T07:47:01;11.77;;;4.83;;
4053;SDS011;2042;47.956;9.222;2023-09-30T07:49:28;15.77;;;4.93;;
4053;SDS011;2042;47.956;9.222;2023-09-30T07:51:54;12.93;;;5.47;;
4053;SDS011;2042;47.956;9.222;2023-09-30T07:54:20;10.50;;;5.23;;
4053;SDS011;2042;47.956;9.222;2023-09-30T07:56:45;13.80;;;5.30;;
4053;SDS011;2042;47.956;9.222;2023-09-30T07:59:11;7.67;;;4.80;;
4053;SDS011;2042;47.956;9.222;2023-09-30T08:01:37;10.10;;;5.17;;
4053;SDS011;2042;47.956;9.222;2023-09-30T08:04:03;6.50;;;3.63;;
4053;SDS011;2042;47.956;9.222;2023-09-30T08:06:29;8.57;;;4.47;;
4053;SDS011;2042;47.956;9.222;2023-09-30T08:08:54;10.30;;;5.10;;
4053;SDS011;2042;47.956;9.222;2023-09-30T08:11:20;7.30;;;4.00;;
4053;SDS011;2042;47.956;9.222;2023-09-30T08:13:46;9.80;;;4.50;;
4053;SDS011;2042;47.956;9.222;2023-09-30T08:16:12;9.80;;;4.77;;
4053;SDS011;2042;47.956;9.222;2023-09-30T08:18:38;9.43;;;4.60;;
4053;SDS011;2042;47.956;9.222;2023-09-30T08:21:04;8.07;;;4.38;;
4053;SDS011;2042;47.956;9.222;2023-09-30T08:23:33;8.23;;;4.90;;
4053;SDS011;2042;47.956;9.222;2023-09-30T08:25:59;7.00;;;4.33;;
4053;SDS011;2042;47.956;9.222;2023-09-30T08:28:25;9.23;;;4.17;;
4053;SDS011;2042;47.956;9.222;2023-09-30T08:30:51;7.53;;;4.80;;
4053;SDS011;2042;47.956;9.222;2023-09-30T08:33:19;8.53;;;4.23;;
4053;SDS011;2042;47.956;9.222;2023-09-30T08:35:45;6.00;;;4.20;;
4053;SDS011;2042;47.956;9.222;2023-09-30T08:38:11;7.13;;;4.10;;
4053;SDS011;2042;47.956;9.222;2023-09-30T08:40:37;7.40;;;3.90;;
4053;SDS011;2042;47.956;9.222;2023-09-30T08:43:03;7.17;;;4.00;;
4053;SDS011;2042;47.956;9.222;2023-09-30T08:45:29;5.60;;;3.87;;
4053;SDS011;2042;47.956;9.222;2023-09-30T08:48:00;7.53;;;4.30;;
4053;SDS011;2042;47.956;9.222;2023-09-30T08:50:30;7.03;;;4.27;;
4053;SDS011;2042;47.956;9.222;2023-09-30T08:52:57;10.90;;;5.60;;
4053;SDS011;2042;47.956;9.222;2023-09-30T08:55:25;8.90;;;4.47;;
4053;SDS011;2042;47.956;9.222;2023-09-30T08:57:52;8.23;;;4.30;;
4053;SDS011;2042;47.956;9.222;2023-09-30T09:00:19;7.93;;;3.87;;
4053;SDS011;2042;47.956;9.222;2023-09-30T09:02:45;8.60;;;4.20;;
4053;SDS011;2042;47.956;9.222;2023-09-30T09:05:11;7.53;;;4.27;;
4053;SDS011;2042;47.956;9.222;2023-09-30T09:07:36;7.33;;;3.63;;
4053;SDS011;2042;47.956;9.222;2023-09-30T09:10:03;7.30;;;4.30;;
4053;SDS011;2042;47.956;9.222;2023-09-30T09:12:30;8.57;;;5.30;;
4053;SDS011;2042;47.956;9.222;2023-09-30T09:14:56;6.50;;;4.20;;
4053;SDS011;2042;47.956;9.222;2023-09-30T09:17:21;9.37;;;4.23;;
4053;SDS011;2042;47.956;9.222;2023-09-30T09:20:00;6.17;;;2.97;;
4053;SDS011;2042;47.956;9.222;2023-09-30T09:22:37;11.80;;;5.23;;
4053;SDS011;2042;47.956;9.222;2023-09-30T09:25:06;7.67;;;4.00;;
4053;SDS011;2042;47.956;9.222;2023-09-30T09:27:35;8.10;;;3.80;;
4053;SDS011;2042;47.956;9.222;2023-09-30T09:30:14;7.73;;;4.67;;
4053;SDS011;2042;47.956;9.222;2023-09-30T09:32:51;6.40;;;4.00;;
4053;SDS011;2042;47.956;9.222;2023-09-30T09:35:27;8.70;;;4.33;;
4053;SDS011;2042;47.956;9.222;2023-09-30T09:37:57;6.17;;;4.00;;
4053;SDS011;2042;47.956;9.222;2023-09-30T09:40:33;7.77;;;4.77;;
4053;SDS011;2042;47.956;9.222;2023-09-30T09:43:05;8.17;;;4.30;;
4053;SDS011;2042;47.956;9.222;2023-09-30T09:45:35;7.50;;;4.23;;
4053;SDS011;2042;47.956;9.222;2023-09-30T09:48:03;7.60;;;4.23;;
4053;SDS011;2042;47.956;9.222;2023-09-30T09:50:29;5.83;;;4.40;;
4053;SDS011;2042;47.956;9.222;2023-09-30T09:52:59;8.10;;;5.20;;
4053;SDS011;2042;47.956;9.222;2023-09-30T09:55:26;9.67;;;4.73;;
4053;SDS011;2042;47.956;9.222;2023-09-30T09:57:52;9.20;;;4.33;;
4053;SDS011;2042;47.956;9.222;2023-09-30T10:00:20;6.13;;;4.07;;
4053;SDS011;2042;47.956;9.222;2023-09-30T10:02:47;8.20;;;5.83;;
4053;SDS011;2042;47.956;9.222;2023-09-30T10:05:14;7.80;;;4.83;;
4053;SDS011;2042;47.956;9.222;2023-09-30T10:10:25;9.77;;;4.70;;
4053;SDS011;2042;47.956;9.222;2023-09-30T10:12:51;10.23;;;4.80;;
4053;SDS011;2042;47.956;9.222;2023-09-30T10:20:27;11.40;;;5.03;;
4053;SDS011;2042;47.956;9.222;2023-09-30T10:25:52;8.50;;;5.30;;
4053;SDS011;2042;47.956;9.222;2023-09-30T10:28:32;8.77;;;5.23;;
4053;SDS011;2042;47.956;9.222;2023-09-30T10:31:14;7.77;;;5.80;;
4053;SDS011;2042;47.956;9.222;2023-09-30T10:36:40;12.23;;;6.03;;
4053;SDS011;2042;47.956;9.222;2023-09-30T10:39:10;8.43;;;5.20;;
4053;SDS011;2042;47.956;9.222;2023-09-30T10:46:52;7.87;;;5.63;;
4053;SDS011;2042;47.956;9.222;2023-09-30T10:51:53;12.03;;;5.30;;
4053;SDS011;2042;47.956;9.222;2023-09-30T10:54:25;8.50;;;5.27;;
4053;SDS011;2042;47.956;9.222;2023-09-30T10:56:52;10.40;;;5.83;;
4053;SDS011;2042;47.956;9.222;2023-09-30T10:59:21;10.70;;;6.97;;
4053;SDS011;2042;47.956;9.222;2023-09-30T11:01:49;10.27;;;5.77;;
4053;SDS011;2042;47.956;9.222;2023-09-30T11:04:15;8.23;;;5.43;;
4053;SDS011;2042;47.956;9.222;2023-09-30T11:06:42;10.67;;;5.47;;
4053;SDS011;2042;47.956;9.222;2023-09-30T11:09:08;10.33;;;6.03;;
4053;SDS011;2042;47.956;9.222;2023-09-30T11:11:41;10.70;;;6.17;;
4053;SDS011;2042;47.956;9.222;2023-09-30T11:14:22;8.80;;;6.20;;
4053;SDS011;2042;47.956;9.222;2023-09-30T11:16:55;9.67;;;5.80;;
4053;SDS011;2042;47.956;9.222;2023-09-30T11:19:35;7.93;;;5.40;;
4053;SDS011;2042;47.956;9.222;2023-09-30T11:22:02;11.67;;;6.03;;
4053;SDS011;2042;47.956;9.222;2023-09-30T11:24:28;10.20;;;6.33;;
4053;SDS011;2042;47.956;9.222;2023-09-30T11:26:54;8.17;;;6.07;;
4053;SDS011;2042;47.956;9.222;2023-09-30T11:29:23;10.20;;;6.53;;
4053;SDS011;2042;47.956;9.222;2023-09-30T11:31:50;12.13;;;5.53;;
4053;SDS011;2042;47.956;9.222;2023-09-30T11:34:18;7.60;;;5.80;;
4053;SDS011;2042;47.956;9.222;2023-09-30T11:36:48;9.17;;;5.57;;
4053;SDS011;2042;47.956;9.222;2023-09-30T11:39:21;10.10;;;6.13;;
4053;SDS011;2042;47.956;9.222;2023-09-30T11:41:49;9.00;;;5.43;;
4053;SDS011;2042;47.956;9.222;2023-09-30T11:44:15;9.90;;;6.30;;
4053;SDS011;2042;47.956;9.222;2023-09-30T11:49:28;10.43;;;5.20;;
4053;SDS011;2042;47.956;9.222;2023-09-30T11:52:02;10.03;;;6.60;;
4053;SDS011;2042;47.956;9.222;2023-09-30T11:54:33;11.67;;;6.20;;
4053;SDS011;2042;47.956;9.222;2023-09-30T11:57:02;9.97;;;5.13;;
4053;SDS011;2042;47.956;9.222;2023-09-30T11:59:28;9.30;;;5.70;;
4053;SDS011;2042;47.956;9.222;2023-09-30T12:01:55;10.47;;;5.83;;
4053;SDS011;2042;47.956;9.222;2023-09-30T12:04:21;10.57;;;6.23;;
4053;SDS011;2042;47.956;9.222;2023-09-30T12:06:47;9.80;;;5.10;;
4053;SDS011;2042;47.956;9.222;2023-09-30T12:09:14;9.90;;;6.27;;
4053;SDS011;2042;47.956;9.222;2023-09-30T12:11:41;8.87;;;5.57;;
4053;SDS011;2042;47.956;9.222;2023-09-30T12:14:11;13.90;;;5.77;;
4053;SDS011;2042;47.956;9.222;2023-09-30T12:16:37;9.33;;;5.33;;
4053;SDS011;2042;47.956;9.222;2023-09-30T12:19:03;11.93;;;6.57;;
4053;SDS011;2042;47.956;9.222;2023-09-30T12:21:30;7.53;;;5.13;;
4053;SDS011;2042;47.956;9.222;2023-09-30T12:23:56;10.90;;;6.97;;
4053;SDS011;2042;47.956;9.222;2023-09-30T12:26:22;10.50;;;5.80;;
4053;SDS011;2042;47.956;9.222;2023-09-30T12:28:49;18.73;;;7.20;;
4053;SDS011;2042;47.956;9.222;2023-09-30T12:31:15;8.87;;;5.60;;
4053;SDS011;2042;47.956;9.222;2023-09-30T12:33:41;10.30;;;6.00;;
4053;SDS011;2042;47.956;9.222;2023-09-30T12:36:07;10.20;;;6.20;;
4053;SDS011;2042;47.956;9.222;2023-09-30T12:38:33;11.90;;;6.30;;
4053;SDS011;2042;47.956;9.222;2023-09-30T12:40:59;9.27;;;5.90;;
4053;SDS011;2042;47.956;9.222;2023-09-30T12:43:25;10.83;;;7.00;;
4053;SDS011;2042;47.956;9.222;2023-09-30T12:45:51;11.13;;;6.80;;
4053;SDS011;2042;47.956;9.222;2023-09-30T12:48:17;10.20;;;6.87;;
4053;SDS011;2042;47.956;9.222;2023-09-30T12:50:43;11.07;;;6.43;;
4053;SDS011;2042;47.956;9.222;2023-09-30T12:53:09;11.60;;;6.67;;
4053;SDS011;2042;47.956;9.222;2023-09-30T12:55:35;11.60;;;6.67;;
4053;SDS011;2042;47.956;9.222;2023-09-30T12:58:01;8.60;;;5.20;;
4053;SDS011;2042;47.956;9.222;2023-09-30T13:00:27;12.67;;;7.90;;
4053;SDS011;2042;47.956;9.222;2023-09-30T13:02:55;9.10;;;6.40;;
4053;SDS011;2042;47.956;9.222;2023-09-30T13:05:21;10.43;;;6.93;;
4053;SDS011;2042;47.956;9.222;2023-09-30T13:07:48;9.27;;;6.30;;
4053;SDS011;2042;47.956;9.222;2023-09-30T13:10:14;11.73;;;7.40;;
4053;SDS011;2042;47.956;9.222;2023-09-30T13:12:40;12.67;;;7.50;;
4053;SDS011;2042;47.956;9.222;2023-09-30T13:15:05;12.77;;;9.20;;
4053;SDS011;2042;47.956;9.222;2023-09-30T13:17:33;15.50;;;7.90;;
4053;SDS011;2042;47.956;9.222;2023-09-30T13:19:59;14.53;;;7.07;;
4053;SDS011;2042;47.956;9.222;2023-09-30T13:22:25;14.67;;;7.60;;
4053;SDS011;2042;47.956;9.222;2023-09-30T13:24:50;11.93;;;6.13;;
4053;SDS011;2042;47.956;9.222;2023-09-30T13:27:16;16.33;;;7.57;;
4053;SDS011;2042;47.956;9.222;2023-09-30T13:29:42;12.40;;;7.13;;
4053;SDS011;2042;47.956;9.222;2023-09-30T13:32:09;15.47;;;8.67;;
4053;SDS011;2042;47.956;9.222;2023-09-30T13:34:35;13.60;;;7.70;;
4053;SDS011;2042;47.956;9.222;2023-09-30T13:37:01;13.30;;;7.43;;
4053;SDS011;2042;47.956;9.222;2023-09-30T13:39:27;12.30;;;7.90;;
4053;SDS011;2042;47.956;9.222;2023-09-30T13:41:54;13.33;;;7.77;;
4053;SDS011;2042;47.956;9.222;2023-09-30T13:44:19;13.87;;;7.60;;
4053;SDS011;2042;47.956;9.222;2023-09-30T13:46:46;13.57;;;7.40;;
4053;SDS011;2042;47.956;9.222;2023-09-30T13:49:12;13.37;;;7.60;;
4053;SDS011;2042;47.956;9.222;2023-09-30T13:51:38;15.20;;;7.83;;
4053;SDS011;2042;47.956;9.222;2023-09-30T13:54:04;14.23;;;7.87;;
4053;SDS011;2042;47.956;9.222;2023-09-30T13:56:32;14.43;;;7.70;;
4053;SDS011;2042;47.956;9.222;2023-09-30T13:58:58;10.87;;;7.50;;
4053;SDS011;2042;47.956;9.222;2023-09-30T14:01:24;13.23;;;6.73;;
4053;SDS011;2042;47.956;9.222;2023-09-30T14:03:50;13.47;;;7.50;;
4053;SDS011;2042;47.956;9.222;2023-09-30T14:06:20;15.90;;;7.50;;
4053;SDS011;2042;47.956;9.222;2023-09-30T14:08:46;9.70;;;5.83;;
4053;SDS011;2042;47.956;9.222;2023-09-30T14:11:11;12.00;;;7.00;;
4053;SDS011;2042;47.956;9.222;2023-09-30T14:13:37;10.83;;;6.20;;
4053;SDS011;2042;47.956;9.222;2023-09-30T14:16:04;13.00;;;7.63;;
4053;SDS011;2042;47.956;9.222;2023-09-30T14:18:30;14.63;;;7.33;;
4053;SDS011;2042;47.956;9.222;2023-09-30T14:20:56;15.27;;;6.93;;
4053;SDS011;2042;47.956;9.222;2023-09-30T14:23:22;11.63;;;6.40;;
4053;SDS011;2042;47.956;9.222;2023-09-30T14:25:48;13.57;;;8.53;;
4053;SDS011;2042;47.956;9.222;2023-09-30T14:28:14;12.30;;;7.27;;
4053;SDS011;2042;47.956;9.222;2023-09-30T14:30:40;12.90;;;7.10;;
4053;SDS011;2042;47.956;9.222;2023-09-30T14:33:06;12.00;;;7.57;;
4053;SDS011;2042;47.956;9.222;2023-09-30T14:35:34;10.40;;;7.00;;
4053;SDS011;2042;47.956;9.222;2023-09-30T14:38:02;10.70;;;6.50;;
4053;SDS011;2042;47.956;9.222;2023-09-30T14:40:28;12.45;;;7.97;;
4053;SDS011;2042;47.956;9.222;2023-09-30T14:42:54;11.50;;;6.73;;
4053;SDS011;2042;47.956;9.222;2023-09-30T14:45:19;10.60;;;6.83;;
4053;SDS011;2042;47.956;9.222;2023-09-30T14:47:46;13.10;;;7.50;;
4053;SDS011;2042;47.956;9.222;2023-09-30T14:50:13;11.33;;;6.40;;
4053;SDS011;2042;47.956;9.222;2023-09-30T14:52:38;11.47;;;6.53;;
4053;SDS011;2042;47.956;9.222;2023-09-30T14:55:05;11.93;;;6.30;;
4053;SDS011;2042;47.956;9.222;2023-09-30T14:57:30;13.30;;;6.40;;
4053;SDS011;2042;47.956;9.222;2023-09-30T14:59:59;11.20;;;6.33;;
4053;SDS011;2042;47.956;9.222;2023-09-30T15:02:25;13.47;;;6.97;;
4053;SDS011;2042;47.956;9.222;2023-09-30T15:04:51;11.03;;;5.43;;
4053;SDS011;2042;47.956;9.222;2023-09-30T15:07:18;13.60;;;6.43;;
4053;SDS011;2042;47.956;9.222;2023-09-30T15:09:43;9.63;;;7.33;;
4053;SDS011;2042;47.956;9.222;2023-09-30T15:12:09;12.40;;;6.07;;
4053;SDS011;2042;47.956;9.222;2023-09-30T15:14:35;10.50;;;7.20;;
4053;SDS011;2042;47.956;9.222;2023-09-30T15:17:01;14.30;;;7.10;;
4053;SDS011;2042;47.956;9.222;2023-09-30T15:19:26;11.30;;;6.23;;
4053;SDS011;2042;47.956;9.222;2023-09-30T15:21:52;13.23;;;7.03;;
4053;SDS011;2042;47.956;9.222;2023-09-30T15:24:17;14.60;;;5.90;;
4053;SDS011;2042;47.956;9.222;2023-09-30T15:26:43;10.47;;;6.37;;
4053;SDS011;2042;47.956;9.222;2023-09-30T15:29:09;13.43;;;6.43;;